createdAt,value
2023-01-17T00:00:38.492Z,33.88
2023-01-17T00:03:07.341Z,33.78
2023-01-17T00:05:52.425Z,33.96
2023-01-17T00:08:37.949Z,33.58
2023-01-17T00:11:05.762Z,33.97
2023-01-17T00:13:33.543Z,33.85
2023-01-17T00:16:01.518Z,33.63
2023-01-17T00:18:29.242Z,33.70
2023-01-17T00:21:14.311Z,34.09
2023-01-17T00:23:55.878Z,34.01
2023-01-17T00:26:23.652Z,34.17
2023-01-17T00:28:50.227Z,33.69
2023-01-17T00:31:16.833Z,33.73
2023-01-17T00:33:43.454Z,34.06
2023-01-17T00:36:10.051Z,33.91
2023-01-17T00:38:36.641Z,33.88
2023-01-17T00:41:03.268Z,33.87
2023-01-17T00:43:48.390Z,33.93
2023-01-17T00:46:33.505Z,33.93
2023-01-17T00:49:19.059Z,33.98
2023-01-17T00:52:04.359Z,34.08
2023-01-17T00:54:49.497Z,33.58
2023-01-17T00:57:34.801Z,34.09
2023-01-17T01:00:19.984Z,34.08
2023-01-17T01:03:05.489Z,33.93
2023-01-17T01:05:50.759Z,34.24
2023-01-17T01:08:35.953Z,33.94
2023-01-17T01:11:21.132Z,34.37
2023-01-17T01:14:06.214Z,33.98
2023-01-17T01:16:51.479Z,33.84
2023-01-17T01:19:36.691Z,34.18
2023-01-17T01:22:21.916Z,34.19
2023-01-17T01:25:07.130Z,34.60
2023-01-17T01:27:52.379Z,34.38
2023-01-17T01:30:37.511Z,34.06
2023-01-17T01:33:19.187Z,34.17
2023-01-17T01:35:46.909Z,33.71
2023-01-17T01:38:14.630Z,33.94
2023-01-17T01:40:42.332Z,33.85
2023-01-17T01:43:10.091Z,34.04
2023-01-17T01:45:37.807Z,34.30
2023-01-17T01:48:05.536Z,34.16
2023-01-17T01:50:33.273Z,34.04
2023-01-17T01:53:01.031Z,33.84
2023-01-17T01:55:28.753Z,34.14
2023-01-17T01:57:56.505Z,34.45
2023-01-17T02:00:24.919Z,33.72
2023-01-17T02:02:53.624Z,34.39
2023-01-17T02:05:21.729Z,34.71
2023-01-17T02:07:49.505Z,34.57
2023-01-17T02:10:17.334Z,34.78
2023-01-17T02:12:45.222Z,34.59
2023-01-17T02:15:13.051Z,34.89
2023-01-17T02:17:40.878Z,35.02
2023-01-17T02:20:08.672Z,34.94
2023-01-17T02:22:36.511Z,34.97
2023-01-17T02:25:05.784Z,34.77
2023-01-17T02:27:33.650Z,35.04
2023-01-17T02:30:01.569Z,35.37
2023-01-17T02:32:29.377Z,34.77
2023-01-17T02:34:57.169Z,34.82
2023-01-17T02:37:24.901Z,34.76
2023-01-17T02:39:52.707Z,34.82
2023-01-17T02:42:20.440Z,34.81
2023-01-17T02:44:48.190Z,34.78
2023-01-17T02:47:15.982Z,34.75
2023-01-17T02:49:43.738Z,34.69
2023-01-17T02:52:11.835Z,34.83
2023-01-17T02:54:41.025Z,34.86
2023-01-17T02:57:08.846Z,34.78
2023-01-17T02:59:36.592Z,34.57
2023-01-17T03:02:04.497Z,34.73
2023-01-17T03:04:32.426Z,34.62
2023-01-17T03:07:00.233Z,34.90
2023-01-17T03:09:28.004Z,34.58
2023-01-17T03:11:55.825Z,34.73
2023-01-17T03:14:23.614Z,34.43
2023-01-17T03:16:51.443Z,34.62
2023-01-17T03:19:19.233Z,34.82
2023-01-17T03:21:47.030Z,34.57
2023-01-17T03:24:14.851Z,34.54
2023-01-17T03:26:44.989Z,34.59
2023-01-17T03:29:12.795Z,34.46
2023-01-17T03:31:40.543Z,34.33
2023-01-17T03:34:08.346Z,34.37
2023-01-17T03:36:36.137Z,34.44
2023-01-17T03:39:03.860Z,34.42
2023-01-17T03:41:31.625Z,34.65
2023-01-17T03:43:59.428Z,34.49
2023-01-17T03:46:27.499Z,34.51
2023-01-17T03:48:55.266Z,34.32
2023-01-17T03:51:23.012Z,34.41
2023-01-17T03:53:52.067Z,34.70
2023-01-17T03:56:19.993Z,34.71
2023-01-17T03:58:47.841Z,35.14
2023-01-17T04:01:15.743Z,34.87
2023-01-17T04:03:43.799Z,35.30
2023-01-17T04:06:11.547Z,35.24
2023-01-17T04:08:39.305Z,35.15
2023-01-17T04:11:07.121Z,35.08
2023-01-17T04:13:34.863Z,35.33
2023-01-17T04:16:02.643Z,35.07
2023-01-17T04:18:30.396Z,35.16
2023-01-17T04:20:58.188Z,35.10
2023-01-17T04:23:25.939Z,35.20
2023-01-17T04:25:53.801Z,35.25
2023-01-17T04:28:21.622Z,35.15
2023-01-17T04:30:49.377Z,35.35
2023-01-17T04:33:17.250Z,34.95
2023-01-17T04:35:45.026Z,34.83
2023-01-17T04:38:12.850Z,35.12
2023-01-17T04:40:40.633Z,35.13
2023-01-17T04:43:08.405Z,34.94
2023-01-17T04:45:36.382Z,34.81
2023-01-17T04:48:05.066Z,35.15
2023-01-17T04:50:32.892Z,35.27
2023-01-17T04:53:00.914Z,34.88
2023-01-17T04:55:28.674Z,34.95
2023-01-17T04:57:56.434Z,34.88
2023-01-17T05:00:24.383Z,34.82
2023-01-17T05:02:52.362Z,34.74
2023-01-17T05:05:20.285Z,34.91
2023-01-17T05:07:48.056Z,34.76
2023-01-17T05:10:15.822Z,35.03
2023-01-17T05:12:43.603Z,35.01
2023-01-17T05:15:11.420Z,34.81
2023-01-17T05:17:39.203Z,34.75
2023-01-17T05:20:06.961Z,34.93
2023-01-17T05:22:35.038Z,34.82
2023-01-17T05:25:02.766Z,34.72
2023-01-17T05:27:30.857Z,34.75
2023-01-17T05:29:58.679Z,34.87
2023-01-17T05:32:26.473Z,34.15
2023-01-17T05:34:54.275Z,34.87
2023-01-17T05:37:22.058Z,34.83
2023-01-17T05:39:49.966Z,35.18
2023-01-17T05:42:17.919Z,34.97
2023-01-17T05:44:45.653Z,34.91
2023-01-17T05:47:13.448Z,34.71
2023-01-17T05:49:41.231Z,35.04
2023-01-17T05:52:09.874Z,34.98
2023-01-17T05:54:38.305Z,35.35
2023-01-17T05:57:06.105Z,34.97
2023-01-17T05:59:37.325Z,35.00
2023-01-17T06:02:05.481Z,35.05
2023-01-17T06:04:33.364Z,35.24
2023-01-17T06:07:01.236Z,35.08
2023-01-17T06:09:29.004Z,35.29
2023-01-17T06:11:56.746Z,35.07
2023-01-17T06:14:24.534Z,35.15
2023-01-17T06:16:52.316Z,35.29
2023-01-17T06:19:20.151Z,35.15
2023-01-17T06:21:47.960Z,35.13
2023-01-17T06:24:15.848Z,35.39
2023-01-17T06:26:43.622Z,35.31
2023-01-17T06:29:11.425Z,35.66
2023-01-17T06:31:39.248Z,35.98
2023-01-17T06:34:07.066Z,35.67
2023-01-17T06:36:34.852Z,35.62
2023-01-17T06:39:02.656Z,35.77
2023-01-17T06:41:30.399Z,35.74
2023-01-17T06:43:58.191Z,35.61
2023-01-17T06:46:26.059Z,35.63
2023-01-17T06:48:53.820Z,35.44
2023-01-17T06:51:21.596Z,35.75
2023-01-17T06:53:49.311Z,35.47
2023-01-17T06:56:17.049Z,35.80
2023-01-17T06:58:44.831Z,35.45
2023-01-17T07:01:12.701Z,35.60
2023-01-17T07:03:40.798Z,35.56
2023-01-17T07:06:09.540Z,35.55
2023-01-17T07:08:37.410Z,35.45
2023-01-17T07:11:05.187Z,35.71
2023-01-17T07:13:34.345Z,35.43
2023-01-17T07:16:04.126Z,35.40
2023-01-17T07:18:31.927Z,35.64
2023-01-17T07:20:59.720Z,35.65
2023-01-17T07:23:27.515Z,35.64
2023-01-17T07:25:55.282Z,35.71
2023-01-17T07:28:23.101Z,35.64
2023-01-17T07:30:50.920Z,35.30
2023-01-17T07:33:18.689Z,35.49
2023-01-17T07:35:46.573Z,35.13
2023-01-17T07:38:14.360Z,35.13
2023-01-17T07:40:42.643Z,35.40
2023-01-17T07:43:14.170Z,35.68
2023-01-17T07:45:42.055Z,35.22
2023-01-17T07:48:09.854Z,35.14
2023-01-17T07:50:37.738Z,35.27
2023-01-17T07:53:05.490Z,35.35
2023-01-17T07:55:33.280Z,35.13
2023-01-17T07:58:02.993Z,35.03
2023-01-17T08:00:30.890Z,35.12
2023-01-17T08:02:58.743Z,35.25
2023-01-17T08:05:26.478Z,35.36
2023-01-17T08:07:54.313Z,34.99
2023-01-17T08:10:22.631Z,34.94
2023-01-17T08:12:50.467Z,35.38
2023-01-17T08:15:18.253Z,35.05
2023-01-17T08:17:46.053Z,34.64
2023-01-17T08:20:13.836Z,35.33
2023-01-17T08:22:41.610Z,35.50
2023-01-17T08:25:09.380Z,34.97
2023-01-17T08:27:37.171Z,35.26
2023-01-17T08:30:05.049Z,35.24
2023-01-17T08:32:32.779Z,35.31
2023-01-17T08:35:00.986Z,35.16
2023-01-17T08:37:28.764Z,35.37
2023-01-17T08:39:56.596Z,35.37
2023-01-17T08:42:24.380Z,35.44
2023-01-17T08:44:52.112Z,35.39
2023-01-17T08:47:19.848Z,35.46
2023-01-17T08:49:47.598Z,35.38
2023-01-17T08:52:15.634Z,35.17
2023-01-17T08:54:43.404Z,35.38
2023-01-17T08:57:11.185Z,35.23
2023-01-17T08:59:38.977Z,35.16
2023-01-17T09:02:14.796Z,35.39
2023-01-17T09:04:42.616Z,35.30
2023-01-17T09:07:10.422Z,35.29
2023-01-17T09:09:38.176Z,35.48
2023-01-17T09:12:06.698Z,35.45
2023-01-17T09:14:34.458Z,35.68
2023-01-17T09:17:02.218Z,35.64
2023-01-17T09:19:30.024Z,35.30
2023-01-17T09:21:57.777Z,35.70
2023-01-17T09:24:25.546Z,35.74
2023-01-17T09:26:53.327Z,35.79
2023-01-17T09:29:21.134Z,35.85
2023-01-17T09:31:48.914Z,35.72
2023-01-17T09:34:18.632Z,35.43
2023-01-17T09:36:46.426Z,35.64
2023-01-17T09:39:15.341Z,35.65
2023-01-17T09:41:43.182Z,35.68
2023-01-17T09:44:11.018Z,35.70
2023-01-17T09:46:38.770Z,35.63
2023-01-17T09:49:06.552Z,35.60
2023-01-17T09:51:34.320Z,35.26
2023-01-17T09:54:02.948Z,35.42
2023-01-17T09:56:30.714Z,35.56
2023-01-17T09:58:58.514Z,35.39
2023-01-17T10:01:26.593Z,35.17
2023-01-17T10:03:54.501Z,35.20
2023-01-17T10:06:22.366Z,35.44
2023-01-17T10:08:50.188Z,35.19
2023-01-17T10:11:17.991Z,35.51
2023-01-17T10:13:45.733Z,35.43
2023-01-17T10:16:13.534Z,35.31
2023-01-17T10:18:41.373Z,35.43
2023-01-17T10:21:09.158Z,35.05
2023-01-17T10:23:36.965Z,35.45
2023-01-17T10:26:04.784Z,35.21
2023-01-17T10:28:32.560Z,35.31
2023-01-17T10:31:00.430Z,34.93
2023-01-17T10:33:28.211Z,35.38
2023-01-17T10:35:56.917Z,35.07
2023-01-17T10:38:24.718Z,34.71
2023-01-17T10:40:52.451Z,35.08
2023-01-17T10:43:20.196Z,35.21
2023-01-17T10:45:47.927Z,34.93
2023-01-17T10:48:15.704Z,35.27
2023-01-17T10:50:43.434Z,35.23
2023-01-17T10:53:11.185Z,35.27
2023-01-17T10:55:39.078Z,35.03
2023-01-17T10:58:07.274Z,35.08
2023-01-17T11:00:34.978Z,35.03
2023-01-17T11:03:02.819Z,34.78
2023-01-17T11:05:30.711Z,34.83
2023-01-17T11:07:58.473Z,34.87
2023-01-17T11:10:26.202Z,34.91
2023-01-17T11:12:53.925Z,34.59
2023-01-17T11:15:25.931Z,34.81
2023-01-17T11:17:54.059Z,34.66
2023-01-17T11:20:22.825Z,34.54
2023-01-17T11:22:50.637Z,34.54
2023-01-17T11:25:18.378Z,35.10
2023-01-17T11:27:46.222Z,34.39
2023-01-17T11:30:15.971Z,34.87
2023-01-17T11:32:43.777Z,35.18
2023-01-17T11:35:11.765Z,34.58
2023-01-17T11:37:40.924Z,35.15
2023-01-17T11:40:08.946Z,35.14
2023-01-17T11:42:36.731Z,35.21
2023-01-17T11:45:04.486Z,35.33
2023-01-17T11:47:32.174Z,34.97
2023-01-17T11:49:59.920Z,35.41
2023-01-17T11:52:27.652Z,35.18
2023-01-17T11:54:55.443Z,35.01
2023-01-17T11:57:23.144Z,35.12
2023-01-17T11:59:52.567Z,35.15
2023-01-17T12:02:24.216Z,35.03
2023-01-17T12:04:51.947Z,35.21
2023-01-17T12:07:19.723Z,34.88
2023-01-17T12:09:47.449Z,35.09
2023-01-17T12:12:32.866Z,35.03
2023-01-17T12:15:00.633Z,34.71
2023-01-17T12:17:28.440Z,35.23
2023-01-17T12:19:57.172Z,35.09
2023-01-17T12:22:24.858Z,34.82
2023-01-17T12:24:52.574Z,34.77
2023-01-17T12:27:20.389Z,34.82
2023-01-17T12:29:48.173Z,34.98
2023-01-17T12:32:15.927Z,34.98
2023-01-17T12:34:43.671Z,34.84
2023-01-17T12:37:11.398Z,34.83
2023-01-17T12:39:39.160Z,34.91
2023-01-17T12:42:06.894Z,35.10
2023-01-17T12:44:34.674Z,34.67
2023-01-17T12:47:02.419Z,34.70
2023-01-17T12:49:30.171Z,34.80
2023-01-17T12:51:57.950Z,34.80
2023-01-17T12:54:25.695Z,35.21
2023-01-17T12:56:53.491Z,34.79
2023-01-17T12:59:21.245Z,34.89
2023-01-17T13:01:57.410Z,34.43
2023-01-17T13:04:25.314Z,34.41
2023-01-17T13:06:53.046Z,34.62
2023-01-17T13:09:21.720Z,34.65
2023-01-17T13:11:49.785Z,34.43
2023-01-17T13:14:17.534Z,34.68
2023-01-17T13:16:45.270Z,35.01
2023-01-17T13:19:12.982Z,34.90
2023-01-17T13:21:40.714Z,35.20
2023-01-17T13:24:08.607Z,35.08
2023-01-17T13:26:39.234Z,34.82
2023-01-17T13:29:07.002Z,35.23
2023-01-17T13:31:34.959Z,35.36
2023-01-17T13:34:02.760Z,35.32
2023-01-17T13:36:30.663Z,35.37
2023-01-17T13:38:58.414Z,35.14
2023-01-17T13:41:26.133Z,34.79
2023-01-17T13:44:07.702Z,34.92
2023-01-17T13:46:36.807Z,35.37
2023-01-17T13:49:04.642Z,34.80
2023-01-17T13:51:32.499Z,35.22
2023-01-17T13:54:00.370Z,34.94
2023-01-17T13:56:28.135Z,34.88
2023-01-17T13:58:57.926Z,34.88
2023-01-17T14:01:25.816Z,34.66
2023-01-17T14:03:53.637Z,34.65
2023-01-17T14:06:21.558Z,34.44
2023-01-17T14:08:49.347Z,34.79
2023-01-17T14:11:17.193Z,34.32
2023-01-17T14:13:47.455Z,34.90
2023-01-17T14:16:15.885Z,34.57
2023-01-17T14:18:43.643Z,34.33
2023-01-17T14:21:11.472Z,34.68
2023-01-17T14:23:39.437Z,34.65
2023-01-17T14:26:07.229Z,34.76
2023-01-17T14:28:35.061Z,34.58
2023-01-17T14:31:03.513Z,34.59
2023-01-17T14:33:31.315Z,34.73
2023-01-17T14:35:59.105Z,34.66
2023-01-17T14:38:26.868Z,34.67
2023-01-17T14:40:54.656Z,34.16
2023-01-17T14:43:22.432Z,34.32
2023-01-17T14:45:50.279Z,34.51
2023-01-17T14:48:18.121Z,24.59
2023-01-17T14:50:45.921Z,17.97
2023-01-17T14:53:13.746Z,14.48
2023-01-17T14:55:41.615Z,13.28
2023-01-17T14:58:10.478Z,13.43
2023-01-17T15:00:38.299Z,13.03
2023-01-17T15:03:06.089Z,13.76
2023-01-17T15:05:33.862Z,14.48
2023-01-17T15:08:01.708Z,15.09
2023-01-17T15:10:29.490Z,15.86
2023-01-17T15:12:57.311Z,16.72
2023-01-17T15:15:25.057Z,17.33
2023-01-17T15:17:53.983Z,17.90
2023-01-17T15:20:21.829Z,18.81
2023-01-17T15:22:49.580Z,19.74
2023-01-17T15:25:19.052Z,20.54
2023-01-17T15:27:47.195Z,21.00
2023-01-17T15:30:14.962Z,21.31
2023-01-17T15:32:42.879Z,22.21
2023-01-17T15:35:10.616Z,21.91
2023-01-17T15:37:39.855Z,21.20
2023-01-17T15:40:07.664Z,19.45
2023-01-17T15:42:35.867Z,18.37
2023-01-17T15:45:03.671Z,16.91
2023-01-17T15:47:31.472Z,16.89
2023-01-17T15:49:59.667Z,16.82
2023-01-17T15:52:27.449Z,17.07
2023-01-17T15:54:55.290Z,17.91
2023-01-17T15:57:23.086Z,18.10
2023-01-17T15:59:50.891Z,18.71
2023-01-17T16:02:18.783Z,19.58
2023-01-17T16:04:46.609Z,20.27
2023-01-17T16:07:14.456Z,20.87
2023-01-17T16:09:42.322Z,21.44
2023-01-17T16:12:10.101Z,22.25
2023-01-17T16:14:59.244Z,22.51
2023-01-17T16:17:25.864Z,23.15
2023-01-17T16:19:53.665Z,23.77
2023-01-17T16:22:21.618Z,24.41
2023-01-17T16:24:49.375Z,24.67
2023-01-17T16:27:17.151Z,25.33
2023-01-17T16:29:44.996Z,25.58
2023-01-17T16:32:12.747Z,26.05
2023-01-17T16:34:40.560Z,26.24
2023-01-17T16:37:08.430Z,26.25
2023-01-17T16:39:36.226Z,26.46
2023-01-17T16:42:04.014Z,26.57
2023-01-17T16:44:33.595Z,26.62
2023-01-17T16:47:02.040Z,27.04
2023-01-17T16:49:29.831Z,27.24
2023-01-17T16:51:57.611Z,27.25
2023-01-17T16:54:25.533Z,27.23
2023-01-17T16:56:53.262Z,27.52
2023-01-17T16:59:21.044Z,27.68
2023-01-17T17:01:50.465Z,28.18
2023-01-17T17:04:18.306Z,28.11
2023-01-17T17:06:46.188Z,28.32
2023-01-17T17:09:14.080Z,28.68
2023-01-17T17:11:42.018Z,28.54
2023-01-17T17:14:09.861Z,28.56
2023-01-17T17:16:39.026Z,28.96
2023-01-17T17:19:06.844Z,28.76
2023-01-17T17:21:34.741Z,29.18
2023-01-17T17:24:02.537Z,29.50
2023-01-17T17:26:31.169Z,29.22
2023-01-17T17:28:59.025Z,29.00
2023-01-17T17:31:26.921Z,29.09
2023-01-17T17:33:54.740Z,29.15
2023-01-17T17:36:22.542Z,28.73
2023-01-17T17:38:53.614Z,29.36
2023-01-17T17:41:21.594Z,27.58
2023-01-17T17:43:49.346Z,21.80
2023-01-17T17:46:17.151Z,16.35
2023-01-17T17:48:44.919Z,13.40
2023-01-17T17:51:12.836Z,12.38
2023-01-17T17:53:40.638Z,11.22
2023-01-17T17:56:08.460Z,10.00
2023-01-17T17:58:36.973Z,9.30
2023-01-17T18:01:04.879Z,9.05
2023-01-17T18:03:32.730Z,9.08
2023-01-17T18:06:00.545Z,9.60
2023-01-17T18:08:32.491Z,9.83
2023-01-17T18:11:00.294Z,10.67
2023-01-17T18:13:28.143Z,11.25
2023-01-17T18:15:55.966Z,11.96
2023-01-17T18:18:24.894Z,12.87
2023-01-17T18:20:52.830Z,13.56
2023-01-17T18:23:20.612Z,14.47
2023-01-17T18:25:48.354Z,15.27
2023-01-17T18:28:16.310Z,16.06
2023-01-17T18:30:44.230Z,16.99
2023-01-17T18:33:13.266Z,17.62
2023-01-17T18:35:41.113Z,18.28
2023-01-17T18:38:08.944Z,19.10
2023-01-17T18:40:36.735Z,19.67
2023-01-17T18:43:04.551Z,20.27
2023-01-17T18:45:32.364Z,20.98
2023-01-17T18:48:00.820Z,21.60
2023-01-17T18:50:28.570Z,22.35
2023-01-17T18:52:56.702Z,22.51
2023-01-17T18:55:24.634Z,23.39
2023-01-17T18:57:52.610Z,23.68
2023-01-17T19:00:21.391Z,24.24
2023-01-17T19:02:49.632Z,24.64
2023-01-17T19:05:19.366Z,24.89
2023-01-17T19:07:47.269Z,25.19
2023-01-17T19:10:15.041Z,25.41
2023-01-17T19:12:42.798Z,25.12
2023-01-17T19:15:10.718Z,25.01
2023-01-17T19:17:38.547Z,25.41
2023-01-17T19:20:07.184Z,25.54
2023-01-17T19:22:34.935Z,25.82
2023-01-17T19:25:02.889Z,26.14
2023-01-17T19:27:30.669Z,26.26
2023-01-17T19:29:58.434Z,26.42
2023-01-17T19:32:26.207Z,27.03
2023-01-17T19:34:53.983Z,26.63
2023-01-17T19:37:21.865Z,27.36
2023-01-17T19:39:49.748Z,27.41
2023-01-17T19:42:17.751Z,27.50
2023-01-17T19:44:45.525Z,27.67
2023-01-17T19:47:13.528Z,27.59
2023-01-17T19:49:42.551Z,27.41
2023-01-17T19:52:10.374Z,27.39
2023-01-17T19:54:38.162Z,28.02
2023-01-17T19:57:06.019Z,27.95
2023-01-17T19:59:33.854Z,28.25
2023-01-17T20:02:01.974Z,28.40
2023-01-17T20:04:29.908Z,28.98
2023-01-17T20:06:57.760Z,29.03
2023-01-17T20:09:25.784Z,29.09
2023-01-17T20:11:53.619Z,29.00
2023-01-17T20:14:21.828Z,29.32
2023-01-17T20:16:49.752Z,29.70
2023-01-17T20:19:17.868Z,29.45
2023-01-17T20:21:45.659Z,29.42
2023-01-17T20:24:14.459Z,29.49
2023-01-17T20:26:42.259Z,29.64
2023-01-17T20:29:10.475Z,30.19
2023-01-17T20:31:38.767Z,29.97
2023-01-17T20:34:06.555Z,29.91
2023-01-17T20:36:34.303Z,29.85
2023-01-17T20:39:02.626Z,30.13
2023-01-17T20:41:30.441Z,30.25
2023-01-17T20:43:58.203Z,29.88
2023-01-17T20:46:26.000Z,30.06
2023-01-17T20:48:53.882Z,30.29
2023-01-17T20:51:21.687Z,30.21
2023-01-17T20:53:49.509Z,30.46
2023-01-17T20:56:17.309Z,30.50
2023-01-17T20:58:45.149Z,29.91
2023-01-17T21:01:13.047Z,30.27
2023-01-17T21:03:40.943Z,30.32
2023-01-17T21:06:08.727Z,30.47
2023-01-17T21:08:36.569Z,30.28
2023-01-17T21:11:04.383Z,30.42
2023-01-17T21:13:32.617Z,30.57
2023-01-17T21:16:00.471Z,30.30
2023-01-17T21:18:28.235Z,30.25
2023-01-17T21:20:56.073Z,30.61
2023-01-17T21:23:29.186Z,30.29
2023-01-17T21:25:57.148Z,30.63
2023-01-17T21:28:24.894Z,30.36
2023-01-17T21:30:52.657Z,30.38
2023-01-17T21:33:20.496Z,30.54
2023-01-17T21:35:48.252Z,30.55
2023-01-17T21:38:16.013Z,30.62
2023-01-17T21:40:43.796Z,30.47
2023-01-17T21:43:11.565Z,30.73
2023-01-17T21:45:39.351Z,30.42
2023-01-17T21:48:07.466Z,30.39
2023-01-17T21:50:35.239Z,30.62
2023-01-17T21:53:02.997Z,30.18
2023-01-17T21:55:48.211Z,30.42
2023-01-17T21:58:33.461Z,30.48
2023-01-17T22:01:11.073Z,30.91
2023-01-17T22:03:38.928Z,30.86
2023-01-17T22:06:06.689Z,30.93
2023-01-17T22:08:35.170Z,30.67
2023-01-17T22:11:02.889Z,31.03
2023-01-17T22:13:30.621Z,31.04
2023-01-17T22:15:58.465Z,31.26
2023-01-17T22:18:26.228Z,31.12
2023-01-17T22:20:53.961Z,31.09
2023-01-17T22:23:21.683Z,31.48
2023-01-17T22:25:49.435Z,31.30
2023-01-17T22:28:17.228Z,31.61
2023-01-17T22:30:45.474Z,31.49
2023-01-17T22:33:13.204Z,31.25
2023-01-17T22:35:40.947Z,31.40
2023-01-17T22:38:08.686Z,31.24
2023-01-17T22:40:38.254Z,31.29
2023-01-17T22:43:06.284Z,31.40
2023-01-17T22:45:34.254Z,31.05
2023-01-17T22:48:01.984Z,31.29
2023-01-17T22:50:29.675Z,31.45
2023-01-17T22:52:57.805Z,31.16
2023-01-17T22:55:25.705Z,31.53
2023-01-17T22:57:53.406Z,31.48
2023-01-17T23:00:21.145Z,31.47
2023-01-17T23:02:48.979Z,31.35
2023-01-17T23:05:16.812Z,31.53
2023-01-17T23:07:44.662Z,31.22
2023-01-17T23:10:12.370Z,31.74
2023-01-17T23:12:40.154Z,31.42
2023-01-17T23:15:28.552Z,31.22
2023-01-17T23:18:13.714Z,31.51
2023-01-17T23:20:41.626Z,31.50
2023-01-17T23:23:09.401Z,31.32
2023-01-17T23:25:37.131Z,31.66
2023-01-17T23:28:14.433Z,31.44
2023-01-17T23:30:42.993Z,31.19
2023-01-17T23:33:10.757Z,31.72
2023-01-17T23:35:41.675Z,31.46
2023-01-17T23:38:29.958Z,31.29
2023-01-17T23:41:15.563Z,31.09
2023-01-17T23:43:43.359Z,31.13
2023-01-17T23:46:11.109Z,31.34
2023-01-17T23:48:38.921Z,30.81
2023-01-17T23:51:08.041Z,30.91
2023-01-17T23:53:36.063Z,31.55
2023-01-17T23:56:04.012Z,31.18
2023-01-17T23:58:32.115Z,30.77
